sensor_id;sensor_type;location;lat;lon;timestamp;P1;durP1;ratioP1;P2;durP2;ratioP2
18364;SDS011;9309;52.126;11.616;2023-02-21T00:02:38;30.67;;;13.97;;
18364;SDS011;9309;52.126;11.616;2023-02-21T00:05:23;31.63;;;14.87;;
18364;SDS011;9309;52.126;11.616;2023-02-21T00:08:07;34.80;;;14.83;;
18364;SDS011;9309;52.126;11.616;2023-02-21T00:10:52;32.80;;;15.10;;
18364;SDS011;9309;52.126;11.616;2023-02-21T00:13:36;34.17;;;14.87;;
18364;SDS011;9309;52.126;11.616;2023-02-21T00:16:22;35.63;;;15.77;;
18364;SDS011;9309;52.126;11.616;2023-02-21T00:19:06;28.83;;;14.33;;
18364;SDS011;9309;52.126;11.616;2023-02-21T00:21:52;29.93;;;14.23;;
18364;SDS011;9309;52.126;11.616;2023-02-21T00:24:36;27.70;;;13.67;;
18364;SDS011;9309;52.126;11.616;2023-02-21T00:27:20;26.47;;;12.97;;
18364;SDS011;9309;52.126;11.616;2023-02-21T00:30:07;33.93;;;15.83;;
18364;SDS011;9309;52.126;11.616;2023-02-21T00:32:52;36.57;;;16.63;;
18364;SDS011;9309;52.126;11.616;2023-02-21T00:35:36;38.10;;;15.03;;
18364;SDS011;9309;52.126;11.616;2023-02-21T00:38:21;30.23;;;15.00;;
18364;SDS011;9309;52.126;11.616;2023-02-21T00:41:05;31.60;;;14.70;;
18364;SDS011;9309;52.126;11.616;2023-02-21T00:43:49;32.07;;;15.10;;
18364;SDS011;9309;52.126;11.616;2023-02-21T00:46:33;30.00;;;14.97;;
18364;SDS011;9309;52.126;11.616;2023-02-21T00:49:18;30.73;;;14.40;;
18364;SDS011;9309;52.126;11.616;2023-02-21T00:52:03;32.00;;;14.40;;
18364;SDS011;9309;52.126;11.616;2023-02-21T00:54:48;27.43;;;14.83;;
18364;SDS011;9309;52.126;11.616;2023-02-21T00:57:32;30.87;;;14.83;;
18364;SDS011;9309;52.126;11.616;2023-02-21T01:00:18;28.30;;;14.00;;
18364;SDS011;9309;52.126;11.616;2023-02-21T09:42:15;29.50;;;14.70;;
18364;SDS011;9309;52.126;11.616;2023-02-21T09:44:42;34.60;;;15.70;;
18364;SDS011;9309;52.126;11.616;2023-02-21T09:47:12;35.80;;;16.23;;
18364;SDS011;9309;52.126;11.616;2023-02-21T09:49:42;35.93;;;15.53;;
18364;SDS011;9309;52.126;11.616;2023-02-21T09:52:12;34.50;;;15.03;;
18364;SDS011;9309;52.126;11.616;2023-02-21T09:54:49;34.57;;;16.10;;
18364;SDS011;9309;52.126;11.616;2023-02-21T13:47:10;18.67;;;9.93;;
18364;SDS011;9309;52.126;11.616;2023-02-21T13:49:50;19.40;;;10.03;;
18364;SDS011;9309;52.126;11.616;2023-02-21T13:52:34;17.43;;;9.27;;
18364;SDS011;9309;52.126;11.616;2023-02-21T13:55:25;19.20;;;11.13;;
18364;SDS011;9309;52.126;11.616;2023-02-21T14:01:16;16.67;;;8.40;;
18364;SDS011;9309;52.126;11.616;2023-02-21T14:07:42;15.27;;;8.47;;
18364;SDS011;9309;52.126;11.616;2023-02-21T14:10:17;16.83;;;9.57;;
18364;SDS011;9309;52.126;11.616;2023-02-21T14:12:53;18.87;;;10.70;;
18364;SDS011;9309;52.126;11.616;2023-02-21T14:15:22;16.03;;;9.03;;
18364;SDS011;9309;52.126;11.616;2023-02-21T14:18:00;15.07;;;8.50;;
18364;SDS011;9309;52.126;11.616;2023-02-21T14:20:26;15.47;;;9.37;;
18364;SDS011;9309;52.126;11.616;2023-02-21T14:22:55;13.33;;;8.60;;
18364;SDS011;9309;52.126;11.616;2023-02-21T14:25:24;17.87;;;9.33;;
18364;SDS011;9309;52.126;11.616;2023-02-21T14:27:52;14.90;;;7.87;;
18364;SDS011;9309;52.126;11.616;2023-02-21T14:30:26;15.07;;;7.93;;
18364;SDS011;9309;52.126;11.616;2023-02-21T14:32:57;17.03;;;9.17;;
18364;SDS011;9309;52.126;11.616;2023-02-21T14:35:34;16.33;;;8.97;;
18364;SDS011;9309;52.126;11.616;2023-02-21T14:38:06;17.10;;;8.50;;
18364;SDS011;9309;52.126;11.616;2023-02-21T14:40:44;14.90;;;8.73;;
18364;SDS011;9309;52.126;11.616;2023-02-21T14:43:27;13.57;;;8.23;;
18364;SDS011;9309;52.126;11.616;2023-02-21T14:49:14;13.73;;;7.90;;
18364;SDS011;9309;52.126;11.616;2023-02-21T14:52:12;14.90;;;8.10;;
18364;SDS011;9309;52.126;11.616;2023-02-21T15:01:01;20.70;;;8.70;;
18364;SDS011;9309;52.126;11.616;2023-02-21T15:03:35;17.70;;;8.90;;
18364;SDS011;9309;52.126;11.616;2023-02-21T15:06:09;13.47;;;7.97;;
18364;SDS011;9309;52.126;11.616;2023-02-21T15:08:43;16.60;;;8.43;;
18364;SDS011;9309;52.126;11.616;2023-02-21T15:11:19;18.97;;;8.87;;
18364;SDS011;9309;52.126;11.616;2023-02-21T15:16:40;15.60;;;8.37;;
18364;SDS011;9309;52.126;11.616;2023-02-21T15:19:18;18.67;;;9.47;;
18364;SDS011;9309;52.126;11.616;2023-02-21T15:22:04;17.07;;;9.47;;
18364;SDS011;9309;52.126;11.616;2023-02-21T15:24:55;19.97;;;9.27;;
18364;SDS011;9309;52.126;11.616;2023-02-21T15:27:24;17.40;;;10.27;;
18364;SDS011;9309;52.126;11.616;2023-02-21T15:30:02;14.60;;;9.23;;
18364;SDS011;9309;52.126;11.616;2023-02-21T15:32:32;15.50;;;9.53;;
18364;SDS011;9309;52.126;11.616;2023-02-21T15:35:00;16.80;;;9.97;;
18364;SDS011;9309;52.126;11.616;2023-02-21T15:37:30;18.03;;;9.60;;
18364;SDS011;9309;52.126;11.616;2023-02-21T15:40:00;18.33;;;9.37;;
18364;SDS011;9309;52.126;11.616;2023-02-21T15:42:37;19.13;;;9.83;;
18364;SDS011;9309;52.126;11.616;2023-02-21T15:45:05;19.30;;;9.87;;
18364;SDS011;9309;52.126;11.616;2023-02-21T15:47:35;15.50;;;8.90;;
18364;SDS011;9309;52.126;11.616;2023-02-21T15:50:06;14.13;;;8.60;;
18364;SDS011;9309;52.126;11.616;2023-02-21T15:52:37;18.47;;;9.50;;
18364;SDS011;9309;52.126;11.616;2023-02-21T15:55:11;16.83;;;9.23;;
18364;SDS011;9309;52.126;11.616;2023-02-21T15:57:41;15.07;;;8.83;;
18364;SDS011;9309;52.126;11.616;2023-02-21T16:00:18;15.23;;;8.63;;
18364;SDS011;9309;52.126;11.616;2023-02-21T16:02:48;16.20;;;9.10;;
18364;SDS011;9309;52.126;11.616;2023-02-21T16:05:22;16.83;;;8.57;;
18364;SDS011;9309;52.126;11.616;2023-02-21T16:07:50;14.43;;;8.93;;
18364;SDS011;9309;52.126;11.616;2023-02-21T16:10:19;16.50;;;8.93;;
18364;SDS011;9309;52.126;11.616;2023-02-21T16:12:53;16.33;;;9.53;;
18364;SDS011;9309;52.126;11.616;2023-02-21T16:15:24;18.60;;;9.60;;
18364;SDS011;9309;52.126;11.616;2023-02-21T16:17:54;17.60;;;9.20;;
18364;SDS011;9309;52.126;11.616;2023-02-21T16:20:26;19.70;;;10.47;;
18364;SDS011;9309;52.126;11.616;2023-02-21T16:23:12;17.90;;;9.87;;
18364;SDS011;9309;52.126;11.616;2023-02-21T16:25:54;17.43;;;10.27;;
18364;SDS011;9309;52.126;11.616;2023-02-21T16:28:24;15.83;;;9.77;;
18364;SDS011;9309;52.126;11.616;2023-02-21T16:30:51;20.40;;;9.80;;
18364;SDS011;9309;52.126;11.616;2023-02-21T16:38:13;16.83;;;9.77;;
18364;SDS011;9309;52.126;11.616;2023-02-21T16:40:41;14.20;;;8.93;;
18364;SDS011;9309;52.126;11.616;2023-02-21T16:43:08;19.97;;;11.93;;
18364;SDS011;9309;52.126;11.616;2023-02-21T16:45:48;19.60;;;9.87;;
18364;SDS011;9309;52.126;11.616;2023-02-21T16:48:18;17.37;;;9.73;;
18364;SDS011;9309;52.126;11.616;2023-02-21T16:50:48;17.03;;;10.00;;
18364;SDS011;9309;52.126;11.616;2023-02-21T16:53:16;16.70;;;9.80;;
18364;SDS011;9309;52.126;11.616;2023-02-21T16:55:44;18.63;;;10.13;;
18364;SDS011;9309;52.126;11.616;2023-02-21T16:58:15;21.10;;;10.30;;
18364;SDS011;9309;52.126;11.616;2023-02-21T17:00:49;16.20;;;9.73;;
18364;SDS011;9309;52.126;11.616;2023-02-21T17:03:17;21.43;;;10.93;;
18364;SDS011;9309;52.126;11.616;2023-02-21T17:05:46;21.57;;;10.07;;
18364;SDS011;9309;52.126;11.616;2023-02-21T17:08:17;17.93;;;9.93;;
18364;SDS011;9309;52.126;11.616;2023-02-21T17:10:44;17.73;;;9.60;;
18364;SDS011;9309;52.126;11.616;2023-02-21T17:13:11;20.93;;;10.93;;
